Time;durP1;ratioP1;P1;durP2;ratioP2;P2;SDS_P1;SDS_P2;PMS_P1;PMS_P2;Temp;Humidity;BMP_temperature;BMP_pressure;BME280_temperature;BME280_humidity;BME280_pressure;Samples;Min_cycle;Max_cycle;Signal;HPM_P1;HPM_P2
2022/01/02 00:00:26;;;;;;;0.00;0.00;;;;;24.40;99763.00;;;;5102207;28;20081;-74
2022/01/02 00:03:03;;;;;;;0.00;0.00;;;;;24.30;99753.00;;;;5103569;28;20047;-75
2022/01/02 00:05:36;;;;;;;0.00;0.00;;;;;24.50;99754.00;;;;5105399;28;20130;-76
2022/01/02 00:08:09;;;;;;;0.00;0.00;;;;;24.50;99775.00;;;;5109101;28;20055;-75
2022/01/02 00:10:51;;;;;;;0.00;0.00;;;;;24.60;99780.00;;;;5108635;28;20053;-76
2022/01/02 00:13:28;;;;;;;0.05;0.05;;;;;24.70;99763.00;;;;5109224;28;20126;-75
2022/01/02 00:16:07;;;;;;;0.00;0.00;;;;;24.50;99784.00;;;;5108866;28;20521;-75
2022/01/02 00:18:40;;;;;;;0.00;0.00;;;;;24.20;99781.00;;;;5109423;27;20111;-74
2022/01/02 00:21:11;;;;;;;0.00;0.00;;;;;24.00;99781.00;;;;5108965;28;20043;-75
2022/01/02 00:24:01;;;;;;;0.00;0.00;;;;;23.80;99789.00;;;;5108168;28;20071;-75
2022/01/02 00:26:41;;;;;;;0.00;0.00;;;;;23.70;99788.00;;;;5106994;28;20433;-75
2022/01/02 00:29:12;;;;;;;0.00;0.00;;;;;23.60;99802.00;;;;5108607;28;20567;-74
2022/01/02 00:31:42;;;;;;;0.00;0.00;;;;;23.50;99799.00;;;;5107683;28;20048;-74
2022/01/02 00:34:12;;;;;;;0.45;0.35;;;;;23.50;99813.00;;;;5108694;28;20039;-74
2022/01/02 00:36:42;;;;;;;0.80;0.20;;;;;23.50;99826.00;;;;5107319;28;20567;-75
2022/01/02 00:39:12;;;;;;;1.10;0.60;;;;;23.30;99842.00;;;;5108924;28;20036;-74
2022/01/02 00:41:57;;;;;;;0.00;0.00;;;;;23.20;99834.00;;;;5108461;28;20046;-74
2022/01/02 00:44:30;;;;;;;0.28;0.28;;;;;23.00;99851.00;;;;5109428;28;20533;-74
2022/01/02 00:47:20;;;;;;;0.85;0.30;;;;;22.90;99847.00;;;;5108679;28;20661;-74
2022/01/02 00:50:20;;;;;;;;;;;;;22.90;99855.00;;;;5109201;28;20126;-75
2022/01/02 00:52:50;;;;;;;0.00;0.00;;;;;22.80;99858.00;;;;5107459;28;19957;-75
2022/01/02 00:55:23;;;;;;;3.10;0.43;;;;;22.80;99866.00;;;;5108594;28;20051;-74
2022/01/02 00:57:58;;;;;;;0.03;0.03;;;;;23.00;99862.00;;;;5108780;28;20040;-75
2022/01/02 01:00:30;;;;;;;0.00;0.00;;;;;23.00;99848.00;;;;5106592;28;20056;-75
2022/01/02 01:03:07;;;;;;;0.00;0.00;;;;;23.00;99854.00;;;;5090736;28;20070;-75
2022/01/02 01:05:39;;;;;;;0.00;0.00;;;;;23.00;99877.00;;;;5108502;28;20530;-75
2022/01/02 01:08:09;;;;;;;;;;;;;23.00;99880.00;;;;5109544;28;20035;-74
2022/01/02 01:10:40;;;;;;;0.00;0.00;;;;;23.00;99881.00;;;;5107118;28;20386;-73
2022/01/02 01:13:10;;;;;;;0.00;0.00;;;;;23.10;99884.00;;;;5105219;28;20139;-73
2022/01/02 01:15:40;;;;;;;0.00;0.00;;;;;23.00;99883.00;;;;5088124;28;20378;-74
2022/01/02 01:18:11;;;;;;;0.00;0.00;;;;;23.00;99881.00;;;;5087537;28;20446;-74
2022/01/02 01:20:43;;;;;;;0.00;0.00;;;;;23.00;99896.00;;;;5086283;28;20036;-74
2022/01/02 01:23:17;;;;;;;0.00;0.00;;;;;22.90;99890.00;;;;5085681;28;20044;-74
2022/01/02 01:25:51;;;;;;;0.00;0.00;;;;;22.80;99879.00;;;;5086149;28;20568;-74
2022/01/02 01:28:21;;;;;;;0.00;0.00;;;;;22.70;99876.00;;;;5086301;28;20064;-74
2022/01/02 01:30:51;;;;;;;0.00;0.00;;;;;22.60;99878.00;;;;5087514;28;20063;-74
2022/01/02 01:33:21;;;;;;;0.00;0.00;;;;;22.60;99884.00;;;;5086291;28;20101;-74
2022/01/02 01:35:51;;;;;;;0.00;0.00;;;;;22.50;99890.00;;;;5087137;28;20426;-74
2022/01/02 01:38:21;;;;;;;0.00;0.00;;;;;22.30;99890.00;;;;5086460;28;20067;-74
2022/01/02 01:41:17;;;;;;;0.00;0.00;;;;;22.10;99892.00;;;;5085575;28;20056;-73
2022/01/02 01:44:07;;;;;;;0.00;0.00;;;;;22.00;99891.00;;;;5085997;28;20184;-73
2022/01/02 01:46:38;;;;;;;0.00;0.00;;;;;21.90;99892.00;;;;5085329;28;20135;-73
2022/01/02 01:49:18;;;;;;;0.10;0.10;;;;;21.80;99885.00;;;;5086209;28;20089;-74
2022/01/02 01:51:48;;;;;;;0.00;0.00;;;;;21.80;99877.00;;;;5085345;28;20051;-74
2022/01/02 01:54:22;;;;;;;0.00;0.00;;;;;21.80;99888.00;;;;5086395;28;20079;-74
2022/01/02 01:56:53;;;;;;;0.00;0.00;;;;;21.80;99890.00;;;;5085147;28;20048;-73
2022/01/02 01:59:26;;;;;;;0.00;0.00;;;;;21.80;99880.00;;;;5085536;28;20055;-73
2022/01/02 02:01:57;;;;;;;0.00;0.00;;;;;21.90;99876.00;;;;5086628;28;20468;-74
2022/01/02 02:04:28;;;;;;;0.10;0.10;;;;;22.10;99848.00;;;;5084815;28;20105;-74
2022/01/02 02:07:00;;;;;;;0.00;0.00;;;;;22.40;99838.00;;;;5085487;28;20135;-73
2022/01/02 02:09:42;;;;;;;0.00;0.00;;;;;22.50;99833.00;;;;5093041;28;20063;-74
2022/01/02 02:12:13;;;;;;;0.00;0.00;;;;;22.50;99810.00;;;;5065571;28;20061;-74
2022/01/02 02:14:46;;;;;;;0.00;0.00;;;;;22.60;99804.00;;;;5065151;28;20079;-74
2022/01/02 02:17:16;;;;;;;0.17;0.15;;;;;22.60;99793.00;;;;5069708;28;20072;-75
2022/01/02 02:19:46;;;;;;;0.00;0.00;;;;;22.70;99795.00;;;;5105699;28;20097;-74
2022/01/02 02:22:16;;;;;;;0.00;0.00;;;;;22.70;99811.00;;;;5103795;28;20142;-74
2022/01/02 02:24:46;;;;;;;0.00;0.00;;;;;22.50;99829.00;;;;5104984;28;20094;-74
2022/01/02 02:27:21;;;;;;;0.00;0.00;;;;;22.30;99830.00;;;;5101413;28;20518;-74
2022/01/02 02:29:51;;;;;;;0.00;0.00;;;;;22.20;99822.00;;;;5084260;28;20058;-74
2022/01/02 02:32:22;;;;;;;0.00;0.00;;;;;22.10;99806.00;;;;5083195;28;20052;-75
2022/01/02 02:34:52;;;;;;;0.00;0.00;;;;;22.00;99797.00;;;;5084495;28;20072;-74
2022/01/02 02:37:22;;;;;;;0.00;0.00;;;;;21.90;99808.00;;;;5086375;28;20043;-75
2022/01/02 02:39:53;;;;;;;0.00;0.00;;;;;21.80;99797.00;;;;5085203;28;20040;-75
2022/01/02 02:42:36;;;;;;;;;;;;;21.70;99820.00;;;;5086305;28;20044;-74
2022/01/02 02:51:12;;;;;;;0.00;0.00;;;;;21.30;99790.00;;;;5085535;28;20059;-75
2022/01/02 02:53:46;;;;;;;0.00;0.00;;;;;21.20;99792.00;;;;5090677;28;20044;-74
2022/01/02 02:56:25;;;;;;;0.00;0.00;;;;;21.10;99790.00;;;;5088999;28;20064;-74
2022/01/02 02:58:57;;;;;;;0.00;0.00;;;;;21.00;99782.00;;;;5090448;28;20051;-74
2022/01/02 03:01:30;;;;;;;0.00;0.00;;;;;21.00;99774.00;;;;5069767;28;20043;-74
2022/01/02 03:04:01;;;;;;;0.00;0.00;;;;;21.00;99783.00;;;;5068844;28;20098;-74
2022/01/02 03:06:32;;;;;;;0.08;0.08;;;;;21.10;99789.00;;;;5068961;28;20060;-74
2022/01/02 03:09:08;;;;;;;0.10;0.05;;;;;21.10;99769.00;;;;5068709;28;20056;-74
2022/01/02 03:11:42;;;;;;;1.17;0.38;;;;;21.10;99764.00;;;;5068103;28;20055;-74
2022/01/02 03:14:13;;;;;;;0.22;0.20;;;;;21.10;99753.00;;;;5068457;28;20120;-74
2022/01/02 03:16:44;;;;;;;;;;;;;21.20;99753.00;;;;5068835;28;20507;-74
2022/01/02 03:19:14;;;;;;;1.35;0.52;;;;;21.20;99755.00;;;;5068746;28;20321;-74
2022/01/02 03:21:43;;;;;;;0.00;0.00;;;;;21.10;99744.00;;;;5069395;28;20408;-74
2022/01/02 03:24:13;;;;;;;0.90;0.63;;;;;21.10;99742.00;;;;5067756;28;20056;-74
2022/01/02 03:26:43;;;;;;;0.32;0.32;;;;;21.00;99748.00;;;;5068217;28;20052;-74
2022/01/02 03:29:13;;;;;;;0.57;0.30;;;;;21.10;99748.00;;;;5069805;28;20040;-75
2022/01/02 03:31:43;;;;;;;0.00;0.00;;;;;21.00;99757.00;;;;5069594;28;20051;-75
2022/01/02 03:34:14;;;;;;;0.00;0.00;;;;;21.00;99746.00;;;;5069549;28;20040;-74
2022/01/02 03:36:44;;;;;;;0.40;0.30;;;;;21.00;99746.00;;;;5067555;28;20049;-74
2022/01/02 03:39:14;;;;;;;0.25;0.25;;;;;21.00;99744.00;;;;5067373;28;20060;-74
2022/01/02 03:41:44;;;;;;;0.40;0.40;;;;;20.90;99733.00;;;;5068088;28;20045;-74
2022/01/02 03:44:14;;;;;;;0.45;0.38;;;;;20.90;99749.00;;;;5067825;28;20136;-74
2022/01/02 03:46:44;;;;;;;0.32;0.30;;;;;20.80;99739.00;;;;5069515;28;20040;-74
2022/01/02 03:49:14;;;;;;;0.17;0.17;;;;;20.80;99733.00;;;;5067768;28;20048;-74
2022/01/02 03:51:44;;;;;;;0.17;0.17;;;;;20.70;99742.00;;;;5067854;28;20121;-74
2022/01/02 03:54:15;;;;;;;0.60;0.60;;;;;20.70;99727.00;;;;5067935;28;20044;-74
2022/01/02 03:56:47;;;;;;;0.30;0.30;;;;;20.70;99743.00;;;;5068963;28;20762;-74
2022/01/02 03:59:17;;;;;;;0.45;0.40;;;;;20.60;99736.00;;;;5067627;28;20048;-74
2022/01/02 04:01:47;;;;;;;0.60;0.60;;;;;20.60;99749.00;;;;5069108;28;20419;-74
2022/01/02 04:04:17;;;;;;;0.65;0.65;;;;;20.60;99744.00;;;;5067214;28;20098;-74
2022/01/02 04:06:47;;;;;;;0.05;0.05;;;;;20.50;99735.00;;;;5067644;28;20532;-74
2022/01/02 04:09:17;;;;;;;0.63;0.40;;;;;20.50;99742.00;;;;5051500;28;20052;-74
2022/01/02 04:11:46;;;;;;;0.10;0.10;;;;;20.50;99734.00;;;;5069165;28;20048;-74
2022/01/02 04:14:16;;;;;;;0.20;0.20;;;;;20.50;99738.00;;;;5068387;28;20047;-74
2022/01/02 04:16:46;;;;;;;0.10;0.10;;;;;20.50;99718.00;;;;5068680;28;20066;-74
2022/01/02 04:19:16;;;;;;;1.65;1.25;;;;;20.50;99735.00;;;;5066879;28;20044;-74
2022/01/02 04:21:47;;;;;;;0.43;0.43;;;;;20.40;99736.00;;;;5067097;28;20057;-74
2022/01/02 04:24:17;;;;;;;0.37;0.33;;;;;20.40;99737.00;;;;5068637;28;20063;-74
2022/01/02 04:26:47;;;;;;;0.45;0.45;;;;;20.40;99740.00;;;;5066633;28;20059;-74
2022/01/02 04:29:18;;;;;;;5.88;0.82;;;;;20.40;99745.00;;;;5067396;28;20059;-74
2022/01/02 04:31:47;;;;;;;1.85;0.73;;;;;20.40;99741.00;;;;5068217;28;20045;-74
2022/01/02 04:34:17;;;;;;;0.95;0.95;;;;;20.30;99743.00;;;;5067216;28;20503;-74
2022/01/02 04:36:50;;;;;;;0.80;0.38;;;;;20.30;99728.00;;;;5068261;28;20045;-74
2022/01/02 04:39:20;;;;;;;0.10;0.10;;;;;20.30;99744.00;;;;5068141;28;20095;-74
2022/01/02 04:41:50;;;;;;;0.00;0.00;;;;;20.30;99739.00;;;;5067003;28;20056;-74
2022/01/02 04:44:21;;;;;;;0.30;0.30;;;;;20.30;99732.00;;;;5066920;28;20063;-74
2022/01/02 04:46:50;;;;;;;1.55;0.45;;;;;20.20;99740.00;;;;5067755;28;20052;-74
2022/01/02 04:49:20;;;;;;;0.00;0.00;;;;;20.20;99736.00;;;;5066264;28;21112;-74
2022/01/02 04:51:53;;;;;;;0.17;0.17;;;;;20.10;99714.00;;;;5066244;28;20052;-74
2022/01/02 04:54:23;;;;;;;0.00;0.00;;;;;20.10;99711.00;;;;5066501;28;20403;-74
2022/01/02 04:56:53;;;;;;;0.00;0.00;;;;;19.90;99738.00;;;;5066961;28;20529;-74
2022/01/02 04:59:23;;;;;;;0.00;0.00;;;;;19.80;99724.00;;;;5066270;28;20110;-74
2022/01/02 05:01:53;;;;;;;0.10;0.10;;;;;19.80;99725.00;;;;5068513;28;20498;-74
2022/01/02 05:04:24;;;;;;;0.00;0.00;;;;;19.80;99726.00;;;;5065842;28;20465;-74
2022/01/02 05:06:54;;;;;;;0.10;0.10;;;;;19.80;99721.00;;;;5066324;28;20053;-74
2022/01/02 05:09:24;;;;;;;0.00;0.00;;;;;19.70;99718.00;;;;5067771;28;20045;-74
2022/01/02 05:11:55;;;;;;;0.00;0.00;;;;;19.60;99737.00;;;;5050299;28;20052;-74
2022/01/02 05:14:24;;;;;;;0.00;0.00;;;;;19.60;99730.00;;;;5065286;28;20055;-74
2022/01/02 05:16:54;;;;;;;0.00;0.00;;;;;19.50;99738.00;;;;5065480;28;20602;-74
2022/01/02 05:19:25;;;;;;;0.00;0.00;;;;;19.50;99736.00;;;;5067561;28;20628;-74
2022/01/02 05:21:56;;;;;;;0.00;0.00;;;;;19.40;99722.00;;;;5066371;28;20051;-74
2022/01/02 05:24:26;;;;;;;0.00;0.00;;;;;19.40;99718.00;;;;5049656;28;20301;-74
2022/01/02 05:26:56;;;;;;;0.00;0.00;;;;;19.40;99730.00;;;;5048885;28;20052;-74
2022/01/02 05:29:26;;;;;;;0.10;0.10;;;;;19.40;99727.00;;;;5065713;28;20087;-74
2022/01/02 05:31:57;;;;;;;0.00;0.00;;;;;19.40;99721.00;;;;5067007;28;20059;-77
2022/01/02 05:34:27;;;;;;;0.90;0.40;;;;;19.40;99716.00;;;;5049833;28;20640;-75
2022/01/02 05:36:57;;;;;;;0.00;0.00;;;;;19.50;99703.00;;;;5066744;28;20282;-74
2022/01/02 05:39:26;;;;;;;0.00;0.00;;;;;19.50;99714.00;;;;5065793;28;20070;-74
2022/01/02 05:41:57;;;;;;;0.00;0.00;;;;;19.60;99711.00;;;;5065914;28;20076;-74
2022/01/02 05:44:27;;;;;;;0.63;0.60;;;;;19.60;99698.00;;;;5065713;28;20055;-74
2022/01/02 05:46:57;;;;;;;0.38;0.30;;;;;19.70;99707.00;;;;5065633;28;20048;-74
2022/01/02 05:49:26;;;;;;;0.45;0.43;;;;;19.60;99701.00;;;;5049260;28;20063;-74
2022/01/02 05:51:57;;;;;;;0.10;0.10;;;;;19.60;99694.00;;;;5065340;28;20064;-74
2022/01/02 05:54:27;;;;;;;0.00;0.00;;;;;19.60;99704.00;;;;5065215;28;20079;-74
2022/01/02 05:56:57;;;;;;;0.00;0.00;;;;;19.60;99703.00;;;;5066733;28;20115;-74
2022/01/02 05:59:27;;;;;;;0.10;0.10;;;;;19.70;99704.00;;;;5065900;28;20086;-74
2022/01/02 06:01:58;;;;;;;0.00;0.00;;;;;19.70;99684.00;;;;5065593;28;20499;-74
2022/01/02 06:04:27;;;;;;;0.00;0.00;;;;;19.70;99683.00;;;;5066769;28;20072;-74
2022/01/02 06:06:58;;;;;;;0.00;0.00;;;;;19.60;99704.00;;;;5064880;28;20076;-74
2022/01/02 06:09:27;;;;;;;0.10;0.10;;;;;19.70;99681.00;;;;5065387;28;20049;-74
2022/01/02 06:11:58;;;;;;;3.08;0.20;;;;;19.70;99702.00;;;;5065017;28;20535;-74
2022/01/02 06:14:27;;;;;;;0.38;0.38;;;;;19.70;99702.00;;;;5065061;28;20113;-74
2022/01/02 06:16:57;;;;;;;44.92;0.65;;;;;19.70;99686.00;;;;5065105;28;20052;-74
2022/01/02 06:19:26;;;;;;;0.28;0.17;;;;;19.60;99697.00;;;;5065263;28;20048;-74
2022/01/02 06:21:56;;;;;;;0.22;0.20;;;;;19.60;99678.00;;;;5065343;28;20078;-74
2022/01/02 06:24:26;;;;;;;0.00;0.00;;;;;19.60;99679.00;;;;5064739;28;20598;-74
2022/01/02 06:26:56;;;;;;;0.00;0.00;;;;;19.60;99684.00;;;;5066878;28;20769;-74
2022/01/02 06:29:25;;;;;;;0.35;0.35;;;;;19.60;99677.00;;;;5064777;28;20453;-74
2022/01/02 06:31:58;;;;;;;0.10;0.10;;;;;19.60;99670.00;;;;5063951;28;20617;-74
2022/01/02 06:34:28;;;;;;;0.00;0.00;;;;;19.50;99680.00;;;;5067018;28;20052;-74
2022/01/02 06:36:58;;;;;;;0.00;0.00;;;;;19.50;99672.00;;;;5064892;28;20056;-74
2022/01/02 06:39:27;;;;;;;0.15;0.10;;;;;19.50;99673.00;;;;5066177;28;20048;-74
2022/01/02 06:42:02;;;;;;;0.00;0.00;;;;;19.60;99652.00;;;;5049596;28;20056;-74
2022/01/02 06:44:31;;;;;;;0.88;0.47;;;;;19.50;99651.00;;;;5064484;28;20044;-74
2022/01/02 06:47:01;;;;;;;0.00;0.00;;;;;19.60;99668.00;;;;5065052;28;20056;-74
2022/01/02 06:49:32;;;;;;;0.00;0.00;;;;;19.50;99659.00;;;;5065080;28;20045;-74
2022/01/02 06:52:02;;;;;;;0.00;0.00;;;;;19.50;99667.00;;;;5065191;28;20048;-74
2022/01/02 06:54:32;;;;;;;0.00;0.00;;;;;19.50;99673.00;;;;5064543;28;20422;-74
2022/01/02 06:57:01;;;;;;;0.30;0.25;;;;;19.50;99663.00;;;;5064341;28;20052;-74
2022/01/02 06:59:31;;;;;;;0.55;0.52;;;;;19.50;99661.00;;;;5065103;28;20049;-74
2022/01/02 07:02:00;;;;;;;0.25;0.17;;;;;19.50;99659.00;;;;5064813;28;20076;-74
2022/01/02 07:04:31;;;;;;;0.63;0.63;;;;;19.60;99644.00;;;;5047812;28;20044;-74
2022/01/02 07:07:00;;;;;;;0.40;0.40;;;;;19.60;99661.00;;;;5047991;28;20462;-74
2022/01/02 07:09:31;;;;;;;0.60;0.60;;;;;19.60;99645.00;;;;5064759;28;20458;-74
2022/01/02 07:12:01;;;;;;;0.00;0.00;;;;;19.70;99651.00;;;;5066552;28;20194;-74
2022/01/02 07:14:30;;;;;;;0.77;0.68;;;;;19.70;99640.00;;;;5065747;28;20530;-74
2022/01/02 07:17:00;;;;;;;0.30;0.20;;;;;19.60;99647.00;;;;5065653;28;20066;-74
2022/01/02 07:19:30;;;;;;;0.00;0.00;;;;;19.60;99639.00;;;;5065917;28;20055;-74
2022/01/02 07:22:00;;;;;;;0.03;0.03;;;;;19.50;99635.00;;;;5065611;28;20500;-74
2022/01/02 07:24:29;;;;;;;0.00;0.00;;;;;19.50;99639.00;;;;5065611;28;20070;-75
2022/01/02 07:26:59;;;;;;;0.00;0.00;;;;;19.50;99623.00;;;;5065940;28;20569;-74
2022/01/02 07:29:28;;;;;;;0.10;0.10;;;;;19.40;99624.00;;;;5065147;28;20049;-74
2022/01/02 07:31:58;;;;;;;0.00;0.00;;;;;19.40;99640.00;;;;5065901;28;20121;-74
2022/01/02 07:34:27;;;;;;;0.00;0.00;;;;;19.50;99643.00;;;;5066110;28;20049;-74
2022/01/02 07:36:57;;;;;;;0.00;0.00;;;;;19.40;99643.00;;;;5065669;28;20561;-74
2022/01/02 07:39:26;;;;;;;1.90;1.27;;;;;19.50;99644.00;;;;5068173;28;20040;-74
2022/01/02 07:41:56;;;;;;;0.00;0.00;;;;;19.50;99650.00;;;;5069442;28;20064;-74
2022/01/02 07:44:33;;;;;;;0.85;0.70;;;;;19.60;99636.00;;;;5067626;28;20051;-74
2022/01/02 07:47:05;;;;;;;0.45;0.45;;;;;19.60;99659.00;;;;5068661;28;20044;-74
2022/01/02 07:49:34;;;;;;;;;;;;;19.50;99643.00;;;;5069779;28;20120;-75
2022/01/02 07:52:04;;;;;;;1.20;0.30;;;;;19.50;99645.00;;;;5069042;28;19977;-74
2022/01/02 07:54:33;;;;;;;0.25;0.25;;;;;19.50;99658.00;;;;5067342;28;20422;-74
2022/01/02 07:57:03;;;;;;;0.20;0.20;;;;;19.50;99656.00;;;;5068786;28;20044;-74
2022/01/02 07:59:33;;;;;;;0.22;0.22;;;;;19.50;99659.00;;;;5069043;28;20094;-74
2022/01/02 08:02:22;;;;;;;0.00;0.00;;;;;19.60;99652.00;;;;5068611;28;20106;-74
2022/01/02 08:04:52;;;;;;;0.20;0.20;;;;;19.60;99662.00;;;;5069195;28;20059;-75
2022/01/02 08:07:22;;;;;;;0.13;0.13;;;;;19.60;99659.00;;;;5068754;28;20422;-74
2022/01/02 08:09:51;;;;;;;0.20;0.20;;;;;19.70;99645.00;;;;5066519;28;20128;-74
2022/01/02 08:12:21;;;;;;;0.00;0.00;;;;;19.80;99680.00;;;;5068686;28;20056;-74
2022/01/02 08:14:50;;;;;;;0.00;0.00;;;;;19.70;99668.00;;;;5068291;28;20128;-74
2022/01/02 08:17:20;;;;;;;0.30;0.30;;;;;19.70;99659.00;;;;5069014;28;20051;-74
2022/01/02 08:19:49;;;;;;;1.42;1.38;;;;;19.70;99666.00;;;;5069142;28;20465;-74
2022/01/02 08:22:20;;;;;;;0.00;0.00;;;;;19.60;99670.00;;;;5067720;28;20048;-74
2022/01/02 08:24:49;;;;;;;0.10;0.10;;;;;19.60;99687.00;;;;5068484;28;20747;-74
2022/01/02 08:27:19;;;;;;;0.00;0.00;;;;;19.60;99675.00;;;;5069870;28;20752;-73
2022/01/02 08:29:48;;;;;;;0.00;0.00;;;;;19.60;99679.00;;;;5092755;28;20044;-75
2022/01/02 08:32:17;;;;;;;0.88;0.82;;;;;19.70;99688.00;;;;5083876;28;20052;-74
2022/01/02 08:34:52;;;;;;;0.50;0.50;;;;;19.70;99671.00;;;;5080268;28;20048;-75
2022/01/02 08:37:21;;;;;;;0.20;0.20;;;;;19.70;99674.00;;;;5083200;28;20050;-75
2022/01/02 08:39:51;;;;;;;0.00;0.00;;;;;19.60;99662.00;;;;5083887;28;20051;-75
2022/01/02 08:42:21;;;;;;;0.00;0.00;;;;;19.80;99688.00;;;;5088785;28;20086;-74
2022/01/02 08:44:50;;;;;;;0.40;0.22;;;;;19.90;99678.00;;;;5074343;28;20064;-75
2022/01/02 08:47:20;;;;;;;0.00;0.00;;;;;19.80;99668.00;;;;5067967;28;20041;-75
2022/01/02 08:49:49;;;;;;;0.00;0.00;;;;;19.80;99674.00;;;;5067808;28;20090;-75
2022/01/02 08:52:19;;;;;;;0.15;0.15;;;;;19.80;99680.00;;;;5067528;28;20600;-75
2022/01/02 08:54:49;;;;;;;0.00;0.00;;;;;19.80;99685.00;;;;5068234;28;20044;-75
2022/01/02 08:57:18;;;;;;;0.00;0.00;;;;;19.80;99674.00;;;;5067725;28;20041;-75
2022/01/02 08:59:47;;;;;;;0.00;0.00;;;;;19.80;99667.00;;;;5065597;28;20059;-75
2022/01/02 09:02:22;;;;;;;0.00;0.00;;;;;19.90;99685.00;;;;5066913;28;20048;-75
2022/01/02 09:04:51;;;;;;;0.03;0.03;;;;;19.90;99688.00;;;;5068335;28;20044;-75
2022/01/02 09:07:21;;;;;;;0.52;0.45;;;;;20.00;99684.00;;;;5067526;28;20052;-75
2022/01/02 09:09:50;;;;;;;0.00;0.00;;;;;20.00;99692.00;;;;5067880;28;20059;-75
2022/01/02 09:12:20;;;;;;;0.00;0.00;;;;;20.00;99705.00;;;;5066912;28;20119;-75
2022/01/02 09:14:49;;;;;;;0.28;0.28;;;;;20.00;99714.00;;;;5066982;28;20062;-75
2022/01/02 09:17:19;;;;;;;0.00;0.00;;;;;20.20;99709.00;;;;5066956;28;20584;-75
2022/01/02 09:19:52;;;;;;;0.00;0.00;;;;;20.30;99695.00;;;;5067373;28;20549;-75
2022/01/02 09:22:22;;;;;;;0.35;0.30;;;;;20.40;99703.00;;;;5067345;28;20520;-75
2022/01/02 09:24:53;;;;;;;0.10;0.10;;;;;20.40;99734.00;;;;5066962;28;20606;-75
2022/01/02 09:27:22;;;;;;;1.80;0.57;;;;;20.60;99711.00;;;;5067617;28;20040;-76
2022/01/02 09:29:51;;;;;;;0.00;0.00;;;;;20.70;99715.00;;;;5066874;28;20047;-75
2022/01/02 09:32:21;;;;;;;0.00;0.00;;;;;20.90;99722.00;;;;5065662;28;20052;-75
2022/01/02 09:34:50;;;;;;;0.00;0.00;;;;;21.10;99700.00;;;;5066830;28;20076;-75
2022/01/02 09:37:19;;;;;;;0.15;0.15;;;;;21.70;99725.00;;;;5066652;28;20492;-75
2022/01/02 09:39:49;;;;;;;0.20;0.10;;;;;22.50;99662.00;;;;5066668;28;20071;-76
2022/01/02 09:42:18;;;;;;;0.00;0.00;;;;;23.10;99683.00;;;;5067206;28;20098;-75
2022/01/02 09:44:47;;;;;;;0.00;0.00;;;;;22.80;99720.00;;;;5067094;28;20400;-75
2022/01/02 09:47:22;;;;;;;0.65;0.32;;;;;22.50;99718.00;;;;5067382;28;20074;-75
2022/01/02 09:49:51;;;;;;;0.47;0.38;;;;;22.50;99746.00;;;;5065859;28;20251;-75
2022/01/02 09:52:21;;;;;;;0.00;0.00;;;;;23.70;99692.00;;;;5065625;28;20495;-75
2022/01/02 09:54:51;;;;;;;1.15;0.70;;;;;23.40;99750.00;;;;5067337;28;20123;-75
2022/01/02 09:57:20;;;;;;;4.60;0.43;;;;;22.80;99744.00;;;;5065030;28;20419;-74
2022/01/02 09:59:50;;;;;;;0.10;0.10;;;;;22.80;99756.00;;;;5065445;28;20037;-74
2022/01/02 10:02:19;;;;;;;0.40;0.40;;;;;23.00;99751.00;;;;5066183;28;20045;-74
2022/01/02 10:04:58;;;;;;;0.00;0.00;;;;;23.30;99735.00;;;;5066443;28;20041;-74
2022/01/02 10:07:34;;;;;;;0.10;0.10;;;;;23.40;99737.00;;;;5066941;28;20040;-75
2022/01/02 10:10:12;;;;;;;0.00;0.00;;;;;23.50;99743.00;;;;5066721;28;20068;-75
2022/01/02 10:12:42;;;;;;;0.00;0.00;;;;;23.80;99756.00;;;;5066952;28;20052;-74
2022/01/02 10:15:17;;;;;;;0.00;0.00;;;;;24.00;99753.00;;;;5066434;28;20041;-74
2022/01/02 10:18:09;;;;;;;0.00;0.00;;;;;24.10;99761.00;;;;5066664;28;20087;-74
2022/01/02 10:20:39;;;;;;;0.17;0.10;;;;;24.40;99764.00;;;;5066726;28;20459;-75
2022/01/02 10:23:24;;;;;;;0.10;0.10;;;;;24.30;99753.00;;;;5065961;28;20091;-74
2022/01/02 10:25:59;;;;;;;4.88;4.47;;;;;24.50;99771.00;;;;5065814;28;20522;-74
2022/01/02 10:28:35;;;;;;;0.50;0.28;;;;;25.70;99711.00;;;;5064269;28;20140;-75
2022/01/02 10:31:12;;;;;;;0.00;0.00;;;;;26.10;99749.00;;;;5066139;28;20072;-75
2022/01/02 10:33:53;;;;;;;0.00;0.00;;;;;25.90;99737.00;;;;5066730;28;20203;-75
2022/01/02 10:36:40;;;;;;;0.00;0.00;;;;;26.30;99763.00;;;;5066264;28;20044;-75
2022/01/02 10:39:19;;;;;;;0.00;0.00;;;;;26.50;99743.00;;;;5066348;28;20573;-75
2022/01/02 10:41:51;;;;;;;0.00;0.00;;;;;27.10;99745.00;;;;5066319;28;20044;-76
2022/01/02 10:44:34;;;;;;;0.00;0.00;;;;;27.70;99739.00;;;;5065361;28;20617;-75
2022/01/02 10:47:21;;;;;;;0.00;0.00;;;;;27.50;99764.00;;;;5066496;28;20052;-75
2022/01/02 10:50:05;;;;;;;0.00;0.00;;;;;27.40;99764.00;;;;5066469;28;20602;-75
2022/01/02 10:52:42;;;;;;;0.38;0.38;;;;;27.90;99742.00;;;;5065957;28;20044;-75
2022/01/02 10:55:18;;;;;;;0.00;0.00;;;;;28.10;99766.00;;;;5066415;28;20064;-75
2022/01/02 10:57:50;;;;;;;0.00;0.00;;;;;27.70;99756.00;;;;5066275;28;20423;-75
2022/01/02 11:00:23;;;;;;;0.00;0.00;;;;;27.70;99759.00;;;;5065562;28;20105;-75
2022/01/02 11:02:53;;;;;;;0.00;0.00;;;;;28.10;99770.00;;;;5066225;28;20490;-75
2022/01/02 11:05:28;;;;;;;0.00;0.00;;;;;28.70;99751.00;;;;5065427;28;20051;-75
2022/01/02 11:08:00;;;;;;;0.00;0.00;;;;;30.10;99707.00;;;;5065931;28;20041;-75
2022/01/02 11:10:36;;;;;;;0.00;0.00;;;;;34.90;99591.00;;;;5065858;28;20037;-75
2022/01/02 11:13:06;;;;;;;0.45;0.22;;;;;37.20;99605.00;;;;5065683;28;20082;-75
2022/01/02 11:15:36;;;;;;;0.00;0.00;;;;;38.10;99589.00;;;;5069475;28;20067;-76
2022/01/02 11:18:06;;;;;;;0.00;0.00;;;;;39.20;99604.00;;;;5070119;28;20040;-76
2022/01/02 11:20:36;;;;;;;0.00;0.00;;;;;39.90;99610.00;;;;5069740;28;20127;-76
2022/01/02 11:23:26;;;;;;;0.00;0.00;;;;;39.80;99626.00;;;;5069092;28;20511;-76
2022/01/02 11:26:28;;;;;;;0.00;0.00;;;;;39.60;99623.00;;;;5069691;28;20045;-76
2022/01/02 11:29:15;;;;;;;0.00;0.00;;;;;39.80;99626.00;;;;5058476;28;20519;-76
2022/01/02 11:31:45;;;;;;;;;;;;;39.00;99652.00;;;;5067807;28;20445;-76
2022/01/02 11:34:33;;;;;;;0.20;0.20;;;;;39.30;99623.00;;;;5067268;28;19932;-77
2022/01/02 11:37:13;;;;;;;0.00;0.00;;;;;39.90;99616.00;;;;5068969;28;20029;-76
2022/01/02 11:40:00;;;;;;;0.00;0.00;;;;;40.00;99612.00;;;;5069074;28;20140;-76
2022/01/02 11:42:40;;;;;;;0.00;0.00;;;;;39.50;99615.00;;;;5067282;28;20107;-76
2022/01/02 11:45:31;;;;;;;0.00;0.00;;;;;39.30;99631.00;;;;5068966;28;20051;-76
2022/01/02 11:48:15;;;;;;;0.00;0.00;;;;;38.90;99613.00;;;;5068496;28;20052;-76
2022/01/02 11:50:46;;;;;;;0.32;0.10;;;;;38.20;99637.00;;;;5068778;28;20472;-76
2022/01/02 11:53:18;;;;;;;0.00;0.00;;;;;37.40;99665.00;;;;5069686;28;20055;-76
2022/01/02 11:55:50;;;;;;;0.00;0.00;;;;;37.70;99610.00;;;;5068942;28;20032;-76
2022/01/02 11:58:38;;;;;;;0.00;0.00;;;;;37.60;99622.00;;;;5067782;28;20514;-76
2022/01/02 12:01:08;;;;;;;0.15;0.15;;;;;36.80;99629.00;;;;5067825;28;20464;-76
2022/01/02 12:03:46;;;;;;;0.00;0.00;;;;;36.20;99649.00;;;;5069067;28;20040;-76
2022/01/02 12:06:19;;;;;;;0.38;0.38;;;;;36.30;99715.00;;;;5068316;28;20040;-76
2022/01/02 12:08:51;;;;;;;0.10;0.10;;;;;36.30;99730.00;;;;5068631;28;20048;-76
2022/01/02 12:11:41;;;;;;;0.00;0.00;;;;;35.90;99741.00;;;;5068591;28;20041;-76
2022/01/02 12:14:20;;;;;;;0.00;0.00;;;;;36.00;99728.00;;;;5068465;28;20044;-76
2022/01/02 12:16:57;;;;;;;0.17;0.17;;;;;36.10;99733.00;;;;5068535;28;20098;-76
2022/01/02 12:19:47;;;;;;;0.38;0.25;;;;;35.70;99737.00;;;;5068614;28;20068;-76
2022/01/02 12:22:17;;;;;;;0.13;0.13;;;;;35.60;99739.00;;;;5068687;28;20141;-77
2022/01/02 12:24:46;;;;;;;0.00;0.00;;;;;36.20;99737.00;;;;5067627;28;20048;-75
2022/01/02 12:27:17;;;;;;;0.93;0.90;;;;;35.90;99734.00;;;;5068554;28;20152;-75
2022/01/02 12:29:46;;;;;;;;;;;;;36.30;99740.00;;;;5068296;28;20041;-75
2022/01/02 12:32:20;;;;;;;4.38;1.35;;;;;36.20;99738.00;;;;5067522;28;19932;-74
2022/01/02 12:34:57;;;;;;;0.10;0.08;;;;;36.30;99755.00;;;;5068358;28;20074;-73
2022/01/02 12:37:29;;;;;;;0.00;0.00;;;;;36.40;99738.00;;;;5091457;28;20051;-74
2022/01/02 12:40:00;;;;;;;0.00;0.00;;;;;36.80;99755.00;;;;5107444;28;20051;-75
2022/01/02 12:42:30;;;;;;;0.00;0.00;;;;;37.50;99741.00;;;;5106073;28;20058;-78
2022/01/02 12:45:04;;;;;;;0.00;0.00;;;;;37.70;99739.00;;;;5108551;28;20562;-76
2022/01/02 12:47:34;;;;;;;0.00;0.00;;;;;37.80;99749.00;;;;5106897;28;20043;-79
2022/01/02 12:50:04;;;;;;;0.00;0.00;;;;;37.60;99755.00;;;;5108957;28;20547;-76